sensor_id;sensor_type;location;lat;lon;timestamp;temperature;humidity
58993;DHT22;44782;0.000;0.000;2023-02-10T00:03:24;13.30;56.50
58993;DHT22;44782;0.000;0.000;2023-02-10T00:05:40;13.20;56.50
58993;DHT22;44782;0.000;0.000;2023-02-10T00:07:55;13.30;56.50
58993;DHT22;44782;0.000;0.000;2023-02-10T00:10:11;13.20;56.40
58993;DHT22;44782;0.000;0.000;2023-02-10T00:12:27;13.20;56.30
58993;DHT22;44782;0.000;0.000;2023-02-10T00:14:43;13.20;56.30
58993;DHT22;44782;0.000;0.000;2023-02-10T00:16:58;13.10;56.20
58993;DHT22;44782;0.000;0.000;2023-02-10T00:19:14;13.20;56.20
58993;DHT22;44782;0.000;0.000;2023-02-10T00:21:30;13.20;56.10
58993;DHT22;44782;0.000;0.000;2023-02-10T00:23:46;13.20;56.10
58993;DHT22;44782;0.000;0.000;2023-02-10T00:26:06;13.10;56.00
58993;DHT22;44782;0.000;0.000;2023-02-10T00:28:22;13.10;56.00
58993;DHT22;44782;0.000;0.000;2023-02-10T00:30:38;13.10;55.90
58993;DHT22;44782;0.000;0.000;2023-02-10T00:32:54;13.10;55.90
58993;DHT22;44782;0.000;0.000;2023-02-10T00:35:09;13.00;55.80
58993;DHT22;44782;0.000;0.000;2023-02-10T00:37:25;13.00;55.70
58993;DHT22;44782;0.000;0.000;2023-02-10T00:39:41;13.00;55.60
58993;DHT22;44782;0.000;0.000;2023-02-10T00:41:56;13.00;55.60
58993;DHT22;44782;0.000;0.000;2023-02-10T00:44:12;13.00;55.60
58993;DHT22;44782;0.000;0.000;2023-02-10T00:46:28;12.90;55.50
58993;DHT22;44782;0.000;0.000;2023-02-10T00:48:44;12.90;55.50
58993;DHT22;44782;0.000;0.000;2023-02-10T00:51:00;12.90;55.50
58993;DHT22;44782;0.000;0.000;2023-02-10T00:53:16;12.90;55.40
58993;DHT22;44782;0.000;0.000;2023-02-10T00:55:32;12.80;55.40
58993;DHT22;44782;0.000;0.000;2023-02-10T00:57:48;12.80;55.40
58993;DHT22;44782;0.000;0.000;2023-02-10T01:00:04;12.80;55.30
58993;DHT22;44782;0.000;0.000;2023-02-10T01:02:20;12.80;55.30
58993;DHT22;44782;0.000;0.000;2023-02-10T01:04:36;12.80;55.30
58993;DHT22;44782;0.000;0.000;2023-02-10T01:06:52;12.80;55.30
58993;DHT22;44782;0.000;0.000;2023-02-10T01:09:09;12.70;55.30
58993;DHT22;44782;0.000;0.000;2023-02-10T01:11:25;12.70;55.80
58993;DHT22;44782;0.000;0.000;2023-02-10T01:13:41;12.70;55.20
58993;DHT22;44782;0.000;0.000;2023-02-10T01:15:57;12.70;55.20
58993;DHT22;44782;0.000;0.000;2023-02-10T01:18:13;12.70;55.20
58993;DHT22;44782;0.000;0.000;2023-02-10T01:20:28;12.70;55.10
58993;DHT22;44782;0.000;0.000;2023-02-10T01:22:44;12.60;55.10
58993;DHT22;44782;0.000;0.000;2023-02-10T01:25:00;12.60;55.00
58993;DHT22;44782;0.000;0.000;2023-02-10T01:27:16;12.60;55.00
58993;DHT22;44782;0.000;0.000;2023-02-10T01:29:32;12.60;55.00
58993;DHT22;44782;0.000;0.000;2023-02-10T01:31:47;12.60;55.00
58993;DHT22;44782;0.000;0.000;2023-02-10T01:34:03;12.60;55.00
58993;DHT22;44782;0.000;0.000;2023-02-10T01:36:21;12.60;55.00
58993;DHT22;44782;0.000;0.000;2023-02-10T01:38:37;12.60;54.90
58993;DHT22;44782;0.000;0.000;2023-02-10T01:40:53;12.50;54.90
58993;DHT22;44782;0.000;0.000;2023-02-10T01:43:17;12.50;54.90
58993;DHT22;44782;0.000;0.000;2023-02-10T01:45:35;12.50;54.70
58993;DHT22;44782;0.000;0.000;2023-02-10T01:47:52;12.50;54.90
58993;DHT22;44782;0.000;0.000;2023-02-10T01:50:09;12.50;54.90
58993;DHT22;44782;0.000;0.000;2023-02-10T01:52:25;12.40;54.80
58993;DHT22;44782;0.000;0.000;2023-02-10T01:54:53;12.40;54.80
58993;DHT22;44782;0.000;0.000;2023-02-10T01:57:10;12.40;54.70
58993;DHT22;44782;0.000;0.000;2023-02-10T01:59:33;12.40;54.80
58993;DHT22;44782;0.000;0.000;2023-02-10T02:01:50;12.40;54.70
58993;DHT22;44782;0.000;0.000;2023-02-10T02:04:06;12.40;54.80
58993;DHT22;44782;0.000;0.000;2023-02-10T02:06:21;12.40;54.80
58993;DHT22;44782;0.000;0.000;2023-02-10T02:08:38;12.40;54.70
58993;DHT22;44782;0.000;0.000;2023-02-10T02:14:26;12.40;54.50
58993;DHT22;44782;0.000;0.000;2023-02-10T02:18:47;12.30;54.70
58993;DHT22;44782;0.000;0.000;2023-02-10T02:24:11;12.20;54.70
58993;DHT22;44782;0.000;0.000;2023-02-10T02:27:10;12.30;54.40
58993;DHT22;44782;0.000;0.000;2023-02-10T02:39:26;12.20;54.50
58993;DHT22;44782;0.000;0.000;2023-02-10T02:41:42;12.20;54.50
58993;DHT22;44782;0.000;0.000;2023-02-10T02:43:59;12.20;54.50
58993;DHT22;44782;0.000;0.000;2023-02-10T02:46:26;12.20;54.50
58993;DHT22;44782;0.000;0.000;2023-02-10T02:49:09;12.20;54.40
58993;DHT22;44782;0.000;0.000;2023-02-10T02:54:37;12.10;54.40
58993;DHT22;44782;0.000;0.000;2023-02-10T02:57:07;12.10;54.10
58993;DHT22;44782;0.000;0.000;2023-02-10T02:59:53;12.10;54.50
58993;DHT22;44782;0.000;0.000;2023-02-10T03:02:14;12.10;54.30
58993;DHT22;44782;0.000;0.000;2023-02-10T03:04:33;12.10;54.50
58993;DHT22;44782;0.000;0.000;2023-02-10T03:06:49;12.00;54.40
58993;DHT22;44782;0.000;0.000;2023-02-10T03:09:05;12.10;54.40
58993;DHT22;44782;0.000;0.000;2023-02-10T03:11:21;12.10;54.40
58993;DHT22;44782;0.000;0.000;2023-02-10T03:13:37;12.10;54.40
58993;DHT22;44782;0.000;0.000;2023-02-10T03:15:52;12.10;54.30
58993;DHT22;44782;0.000;0.000;2023-02-10T03:18:08;12.00;54.30
58993;DHT22;44782;0.000;0.000;2023-02-10T03:20:24;12.00;54.30
58993;DHT22;44782;0.000;0.000;2023-02-10T03:22:41;12.00;54.30
58993;DHT22;44782;0.000;0.000;2023-02-10T03:24:57;12.00;54.30
58993;DHT22;44782;0.000;0.000;2023-02-10T03:27:13;12.00;54.20
58993;DHT22;44782;0.000;0.000;2023-02-10T03:29:28;12.00;54.20
58993;DHT22;44782;0.000;0.000;2023-02-10T03:31:44;12.10;54.30
58993;DHT22;44782;0.000;0.000;2023-02-10T03:34:00;12.00;54.20
58993;DHT22;44782;0.000;0.000;2023-02-10T03:36:15;12.10;54.20
58993;DHT22;44782;0.000;0.000;2023-02-10T03:38:31;12.10;54.20
58993;DHT22;44782;0.000;0.000;2023-02-10T03:40:51;12.10;54.20
58993;DHT22;44782;0.000;0.000;2023-02-10T03:43:07;12.10;54.10
58993;DHT22;44782;0.000;0.000;2023-02-10T03:45:22;12.10;54.20
58993;DHT22;44782;0.000;0.000;2023-02-10T03:47:38;12.10;54.10
58993;DHT22;44782;0.000;0.000;2023-02-10T03:49:54;12.10;54.00
58993;DHT22;44782;0.000;0.000;2023-02-10T03:52:10;12.20;54.00
58993;DHT22;44782;0.000;0.000;2023-02-10T03:54:25;12.20;53.90
58993;DHT22;44782;0.000;0.000;2023-02-10T03:56:41;12.20;53.80
58993;DHT22;44782;0.000;0.000;2023-02-10T03:59:03;12.30;53.80
58993;DHT22;44782;0.000;0.000;2023-02-10T04:01:19;12.30;53.80
58993;DHT22;44782;0.000;0.000;2023-02-10T04:03:35;12.30;53.80
58993;DHT22;44782;0.000;0.000;2023-02-10T04:05:50;12.30;53.80
58993;DHT22;44782;0.000;0.000;2023-02-10T04:08:06;12.30;53.70
58993;DHT22;44782;0.000;0.000;2023-02-10T04:10:22;12.30;53.70
58993;DHT22;44782;0.000;0.000;2023-02-10T04:12:38;12.30;53.60
58993;DHT22;44782;0.000;0.000;2023-02-10T04:14:54;12.30;53.60
58993;DHT22;44782;0.000;0.000;2023-02-10T04:17:09;12.40;53.70
58993;DHT22;44782;0.000;0.000;2023-02-10T04:19:25;12.30;53.50
58993;DHT22;44782;0.000;0.000;2023-02-10T04:21:41;12.40;53.60
58993;DHT22;44782;0.000;0.000;2023-02-10T04:23:56;12.40;53.50
58993;DHT22;44782;0.000;0.000;2023-02-10T04:26:12;12.30;53.50
58993;DHT22;44782;0.000;0.000;2023-02-10T04:28:28;12.40;53.50
58993;DHT22;44782;0.000;0.000;2023-02-10T04:30:43;12.40;53.50
58993;DHT22;44782;0.000;0.000;2023-02-10T04:32:59;12.40;53.50
58993;DHT22;44782;0.000;0.000;2023-02-10T04:35:15;12.40;53.40
58993;DHT22;44782;0.000;0.000;2023-02-10T04:37:30;12.40;53.40
58993;DHT22;44782;0.000;0.000;2023-02-10T04:39:46;12.40;53.40
58993;DHT22;44782;0.000;0.000;2023-02-10T04:42:02;12.30;53.30
58993;DHT22;44782;0.000;0.000;2023-02-10T04:44:17;12.30;53.30
58993;DHT22;44782;0.000;0.000;2023-02-10T04:46:33;12.30;53.30
58993;DHT22;44782;0.000;0.000;2023-02-10T04:48:49;12.30;53.30
58993;DHT22;44782;0.000;0.000;2023-02-10T04:51:09;12.30;53.20
58993;DHT22;44782;0.000;0.000;2023-02-10T04:53:25;12.30;53.20
58993;DHT22;44782;0.000;0.000;2023-02-10T04:55:40;12.30;53.20
58993;DHT22;44782;0.000;0.000;2023-02-10T04:57:56;12.30;53.30
58993;DHT22;44782;0.000;0.000;2023-02-10T05:00:12;12.30;53.20
58993;DHT22;44782;0.000;0.000;2023-02-10T05:02:28;12.30;53.20
58993;DHT22;44782;0.000;0.000;2023-02-10T05:04:44;12.30;53.20
58993;DHT22;44782;0.000;0.000;2023-02-10T05:06:59;12.30;53.20
58993;DHT22;44782;0.000;0.000;2023-02-10T05:09:15;12.30;53.20
58993;DHT22;44782;0.000;0.000;2023-02-10T05:11:31;12.20;53.20
58993;DHT22;44782;0.000;0.000;2023-02-10T05:13:46;12.20;53.20
58993;DHT22;44782;0.000;0.000;2023-02-10T05:16:02;12.20;53.20
58993;DHT22;44782;0.000;0.000;2023-02-10T05:18:18;12.20;53.20
58993;DHT22;44782;0.000;0.000;2023-02-10T05:20:34;12.20;53.10
58993;DHT22;44782;0.000;0.000;2023-02-10T05:22:50;12.20;53.10
58993;DHT22;44782;0.000;0.000;2023-02-10T05:25:07;12.20;53.10
58993;DHT22;44782;0.000;0.000;2023-02-10T05:27:24;12.20;53.10
58993;DHT22;44782;0.000;0.000;2023-02-10T05:29:39;12.20;53.10
58993;DHT22;44782;0.000;0.000;2023-02-10T05:31:55;12.20;53.10
58993;DHT22;44782;0.000;0.000;2023-02-10T05:34:11;12.20;53.10
58993;DHT22;44782;0.000;0.000;2023-02-10T05:36:26;12.20;53.10
58993;DHT22;44782;0.000;0.000;2023-02-10T05:38:42;12.20;53.10
58993;DHT22;44782;0.000;0.000;2023-02-10T05:41:18;12.10;53.10
58993;DHT22;44782;0.000;0.000;2023-02-10T05:43:33;12.10;53.10
58993;DHT22;44782;0.000;0.000;2023-02-10T05:45:49;12.10;53.10
58993;DHT22;44782;0.000;0.000;2023-02-10T05:48:05;12.10;53.10
58993;DHT22;44782;0.000;0.000;2023-02-10T05:50:20;12.10;53.10
58993;DHT22;44782;0.000;0.000;2023-02-10T05:52:36;12.10;53.10
58993;DHT22;44782;0.000;0.000;2023-02-10T05:54:52;12.10;53.10
58993;DHT22;44782;0.000;0.000;2023-02-10T05:57:08;12.10;53.00
58993;DHT22;44782;0.000;0.000;2023-02-10T05:59:24;12.10;53.10
58993;DHT22;44782;0.000;0.000;2023-02-10T06:01:40;12.10;53.10
58993;DHT22;44782;0.000;0.000;2023-02-10T06:03:56;12.10;53.10
58993;DHT22;44782;0.000;0.000;2023-02-10T06:06:12;12.10;53.10
58993;DHT22;44782;0.000;0.000;2023-02-10T06:08:28;12.10;53.00
58993;DHT22;44782;0.000;0.000;2023-02-10T06:10:44;12.10;53.00
58993;DHT22;44782;0.000;0.000;2023-02-10T06:12:59;12.00;53.00
58993;DHT22;44782;0.000;0.000;2023-02-10T06:15:15;12.00;53.00
58993;DHT22;44782;0.000;0.000;2023-02-10T06:17:31;12.00;53.00
58993;DHT22;44782;0.000;0.000;2023-02-10T06:19:48;12.00;53.00
58993;DHT22;44782;0.000;0.000;2023-02-10T06:22:04;12.00;53.00
58993;DHT22;44782;0.000;0.000;2023-02-10T06:24:20;12.00;53.00
58993;DHT22;44782;0.000;0.000;2023-02-10T06:26:36;12.00;53.00
58993;DHT22;44782;0.000;0.000;2023-02-10T06:28:52;12.00;53.00
58993;DHT22;44782;0.000;0.000;2023-02-10T06:31:08;12.00;53.00
58993;DHT22;44782;0.000;0.000;2023-02-10T06:33:23;12.00;53.00
58993;DHT22;44782;0.000;0.000;2023-02-10T06:35:39;12.00;53.00
58993;DHT22;44782;0.000;0.000;2023-02-10T06:37:55;12.00;53.00
58993;DHT22;44782;0.000;0.000;2023-02-10T06:40:11;12.00;53.00
58993;DHT22;44782;0.000;0.000;2023-02-10T06:42:27;11.90;52.90
58993;DHT22;44782;0.000;0.000;2023-02-10T06:44:42;11.90;52.90
58993;DHT22;44782;0.000;0.000;2023-02-10T06:46:58;11.90;52.90
58993;DHT22;44782;0.000;0.000;2023-02-10T06:49:14;11.90;52.90
58993;DHT22;44782;0.000;0.000;2023-02-10T06:51:29;11.90;52.90
58993;DHT22;44782;0.000;0.000;2023-02-10T06:53:45;11.90;53.00
58993;DHT22;44782;0.000;0.000;2023-02-10T06:56:01;11.90;53.00
58993;DHT22;44782;0.000;0.000;2023-02-10T06:58:17;11.90;53.00
58993;DHT22;44782;0.000;0.000;2023-02-10T07:00:32;11.90;53.00
58993;DHT22;44782;0.000;0.000;2023-02-10T07:02:48;11.90;53.00
58993;DHT22;44782;0.000;0.000;2023-02-10T07:05:04;11.90;53.00
58993;DHT22;44782;0.000;0.000;2023-02-10T07:07:21;11.90;53.00
58993;DHT22;44782;0.000;0.000;2023-02-10T07:09:37;11.90;53.00
58993;DHT22;44782;0.000;0.000;2023-02-10T07:11:54;11.80;53.00
58993;DHT22;44782;0.000;0.000;2023-02-10T07:14:09;11.80;52.90
58993;DHT22;44782;0.000;0.000;2023-02-10T07:16:26;11.80;53.00
58993;DHT22;44782;0.000;0.000;2023-02-10T07:18:43;11.80;52.90
58993;DHT22;44782;0.000;0.000;2023-02-10T07:20:59;11.80;52.90
58993;DHT22;44782;0.000;0.000;2023-02-10T07:23:14;11.80;53.00
58993;DHT22;44782;0.000;0.000;2023-02-10T07:25:30;11.80;53.00
58993;DHT22;44782;0.000;0.000;2023-02-10T07:27:46;11.80;53.00
58993;DHT22;44782;0.000;0.000;2023-02-10T07:30:02;11.80;53.00
58993;DHT22;44782;0.000;0.000;2023-02-10T07:32:17;11.80;52.90
58993;DHT22;44782;0.000;0.000;2023-02-10T07:34:33;11.80;52.90
58993;DHT22;44782;0.000;0.000;2023-02-10T07:36:49;11.80;53.00
58993;DHT22;44782;0.000;0.000;2023-02-10T07:39:09;11.80;52.90
58993;DHT22;44782;0.000;0.000;2023-02-10T07:41:26;11.80;53.00
58993;DHT22;44782;0.000;0.000;2023-02-10T07:43:42;11.80;53.00
58993;DHT22;44782;0.000;0.000;2023-02-10T07:45:58;11.70;52.90
58993;DHT22;44782;0.000;0.000;2023-02-10T07:48:14;11.80;53.00
58993;DHT22;44782;0.000;0.000;2023-02-10T07:50:30;11.80;53.00
58993;DHT22;44782;0.000;0.000;2023-02-10T07:52:45;11.80;53.00
58993;DHT22;44782;0.000;0.000;2023-02-10T07:55:01;11.70;52.90
58993;DHT22;44782;0.000;0.000;2023-02-10T07:57:18;11.80;53.00
58993;DHT22;44782;0.000;0.000;2023-02-10T07:59:33;11.80;53.00
58993;DHT22;44782;0.000;0.000;2023-02-10T08:01:49;11.70;53.00
58993;DHT22;44782;0.000;0.000;2023-02-10T08:04:05;11.70;52.90
58993;DHT22;44782;0.000;0.000;2023-02-10T08:06:22;11.70;53.00
58993;DHT22;44782;0.000;0.000;2023-02-10T08:08:38;11.70;53.00
58993;DHT22;44782;0.000;0.000;2023-02-10T08:10:54;11.70;52.90
58993;DHT22;44782;0.000;0.000;2023-02-10T08:13:10;11.70;53.00
58993;DHT22;44782;0.000;0.000;2023-02-10T08:15:25;11.70;53.00
58993;DHT22;44782;0.000;0.000;2023-02-10T08:17:43;11.70;53.00
58993;DHT22;44782;0.000;0.000;2023-02-10T08:20:00;11.70;52.90
58993;DHT22;44782;0.000;0.000;2023-02-10T08:22:16;11.70;53.00
58993;DHT22;44782;0.000;0.000;2023-02-10T08:24:32;11.70;52.90
58993;DHT22;44782;0.000;0.000;2023-02-10T08:26:49;11.70;53.00
58993;DHT22;44782;0.000;0.000;2023-02-10T08:29:05;11.70;52.90
58993;DHT22;44782;0.000;0.000;2023-02-10T08:31:21;11.70;52.90
58993;DHT22;44782;0.000;0.000;2023-02-10T08:33:38;11.70;53.00
58993;DHT22;44782;0.000;0.000;2023-02-10T08:35:53;11.70;53.00
58993;DHT22;44782;0.000;0.000;2023-02-10T08:38:09;11.70;53.00
58993;DHT22;44782;0.000;0.000;2023-02-10T08:40:25;11.70;53.00
58993;DHT22;44782;0.000;0.000;2023-02-10T08:42:42;11.70;52.90
58993;DHT22;44782;0.000;0.000;2023-02-10T08:44:58;11.70;52.90
58993;DHT22;44782;0.000;0.000;2023-02-10T08:47:15;11.70;52.90
58993;DHT22;44782;0.000;0.000;2023-02-10T08:49:32;11.70;52.90
58993;DHT22;44782;0.000;0.000;2023-02-10T08:51:49;11.60;52.90
58993;DHT22;44782;0.000;0.000;2023-02-10T08:54:05;11.70;53.00
58993;DHT22;44782;0.000;0.000;2023-02-10T08:56:22;11.70;53.00
58993;DHT22;44782;0.000;0.000;2023-02-10T08:58:38;11.70;53.00
58993;DHT22;44782;0.000;0.000;2023-02-10T09:00:55;11.70;53.00
58993;DHT22;44782;0.000;0.000;2023-02-10T09:03:11;11.70;53.00
58993;DHT22;44782;0.000;0.000;2023-02-10T09:05:27;11.70;53.00
58993;DHT22;44782;0.000;0.000;2023-02-10T09:07:43;11.70;53.00
58993;DHT22;44782;0.000;0.000;2023-02-10T09:09:58;11.70;53.10
58993;DHT22;44782;0.000;0.000;2023-02-10T09:12:14;11.70;53.10
58993;DHT22;44782;0.000;0.000;2023-02-10T09:14:30;11.70;53.00
58993;DHT22;44782;0.000;0.000;2023-02-10T09:16:46;11.80;53.10
58993;DHT22;44782;0.000;0.000;2023-02-10T09:19:02;11.80;53.10
58993;DHT22;44782;0.000;0.000;2023-02-10T09:21:18;11.80;53.00
58993;DHT22;44782;0.000;0.000;2023-02-10T09:23:34;11.80;52.90
58993;DHT22;44782;0.000;0.000;2023-02-10T09:25:57;11.90;52.90
58993;DHT22;44782;0.000;0.000;2023-02-10T09:28:13;11.90;52.70
58993;DHT22;44782;0.000;0.000;2023-02-10T09:30:28;11.90;52.80
58993;DHT22;44782;0.000;0.000;2023-02-10T09:32:44;11.90;52.80
58993;DHT22;44782;0.000;0.000;2023-02-10T09:35:00;11.90;52.80
58993;DHT22;44782;0.000;0.000;2023-02-10T09:37:15;12.00;52.80
58993;DHT22;44782;0.000;0.000;2023-02-10T09:39:31;12.00;52.70
58993;DHT22;44782;0.000;0.000;2023-02-10T09:44:28;12.00;52.50
58993;DHT22;44782;0.000;0.000;2023-02-10T09:49:53;12.10;52.50
58993;DHT22;44782;0.000;0.000;2023-02-10T09:52:32;12.10;52.50
58993;DHT22;44782;0.000;0.000;2023-02-10T09:54:51;12.10;52.60
58993;DHT22;44782;0.000;0.000;2023-02-10T09:59:53;12.10;52.40
58993;DHT22;44782;0.000;0.000;2023-02-10T10:02:31;12.10;52.70
58993;DHT22;44782;0.000;0.000;2023-02-10T10:04:50;12.10;52.40
58993;DHT22;44782;0.000;0.000;2023-02-10T10:09:41;12.10;52.40
58993;DHT22;44782;0.000;0.000;2023-02-10T10:11:59;12.10;52.60
58993;DHT22;44782;0.000;0.000;2023-02-10T10:14:21;12.10;52.60
58993;DHT22;44782;0.000;0.000;2023-02-10T10:22:08;12.10;52.40
58993;DHT22;44782;0.000;0.000;2023-02-10T10:30:16;12.10;52.40
58993;DHT22;44782;0.000;0.000;2023-02-10T10:32:44;12.10;52.60
58993;DHT22;44782;0.000;0.000;2023-02-10T10:35:02;12.10;52.50
58993;DHT22;44782;0.000;0.000;2023-02-10T10:37:22;12.00;52.60
58993;DHT22;44782;0.000;0.000;2023-02-10T10:39:44;12.10;52.60
58993;DHT22;44782;0.000;0.000;2023-02-10T10:42:05;12.10;52.60
58993;DHT22;44782;0.000;0.000;2023-02-10T10:44:26;12.10;52.60
58993;DHT22;44782;0.000;0.000;2023-02-10T10:49:17;12.00;52.60
58993;DHT22;44782;0.000;0.000;2023-02-10T10:51:34;12.10;52.70
58993;DHT22;44782;0.000;0.000;2023-02-10T10:53:53;12.10;52.80
58993;DHT22;44782;0.000;0.000;2023-02-10T10:58:37;12.10;52.60
58993;DHT22;44782;0.000;0.000;2023-02-10T11:00:59;12.10;52.70
58993;DHT22;44782;0.000;0.000;2023-02-10T11:03:16;12.10;52.60
58993;DHT22;44782;0.000;0.000;2023-02-10T11:05:35;12.10;52.60
58993;DHT22;44782;0.000;0.000;2023-02-10T11:07:51;12.10;52.60
58993;DHT22;44782;0.000;0.000;2023-02-10T11:10:28;12.10;52.60
58993;DHT22;44782;0.000;0.000;2023-02-10T11:12:45;12.10;53.20
58993;DHT22;44782;0.000;0.000;2023-02-10T11:15:04;12.00;52.70
58993;DHT22;44782;0.000;0.000;2023-02-10T11:17:33;12.00;52.60
58993;DHT22;44782;0.000;0.000;2023-02-10T11:22:14;12.00;52.50
58993;DHT22;44782;0.000;0.000;2023-02-10T11:24:32;12.00;52.60
58993;DHT22;44782;0.000;0.000;2023-02-10T11:29:14;12.00;52.50
58993;DHT22;44782;0.000;0.000;2023-02-10T11:31:34;12.00;52.60
58993;DHT22;44782;0.000;0.000;2023-02-10T11:33:57;12.00;52.50
58993;DHT22;44782;0.000;0.000;2023-02-10T11:36:14;12.00;52.50
58993;DHT22;44782;0.000;0.000;2023-02-10T11:38:29;12.00;52.60
58993;DHT22;44782;0.000;0.000;2023-02-10T11:40:52;12.00;52.60
58993;DHT22;44782;0.000;0.000;2023-02-10T11:43:12;12.00;52.50
58993;DHT22;44782;0.000;0.000;2023-02-10T11:45:31;12.00;52.50
58993;DHT22;44782;0.000;0.000;2023-02-10T11:47:47;12.00;52.60
58993;DHT22;44782;0.000;0.000;2023-02-10T11:50:16;12.00;52.60
58993;DHT22;44782;0.000;0.000;2023-02-10T11:52:34;12.00;52.60
58993;DHT22;44782;0.000;0.000;2023-02-10T11:54:51;12.00;52.60
58993;DHT22;44782;0.000;0.000;2023-02-10T12:02:56;12.00;52.70
58993;DHT22;44782;0.000;0.000;2023-02-10T12:05:32;12.00;52.60
58993;DHT22;44782;0.000;0.000;2023-02-10T12:10:31;12.00;52.70
58993;DHT22;44782;0.000;0.000;2023-02-10T12:13:10;12.00;52.50
58993;DHT22;44782;0.000;0.000;2023-02-10T12:30:54;12.20;52.40
58993;DHT22;44782;0.000;0.000;2023-02-10T12:33:04;12.30;52.30
58993;DHT22;44782;0.000;0.000;2023-02-10T12:35:31;12.30;52.30
58993;DHT22;44782;0.000;0.000;2023-02-10T12:51:08;12.50;51.80
58993;DHT22;44782;0.000;0.000;2023-02-10T12:53:45;12.50;52.00
58993;DHT22;44782;0.000;0.000;2023-02-10T12:56:27;12.60;51.90
58993;DHT22;44782;0.000;0.000;2023-02-10T12:58:54;12.60;51.80
58993;DHT22;44782;0.000;0.000;2023-02-10T13:03:34;12.70;52.00
58993;DHT22;44782;0.000;0.000;2023-02-10T13:06:27;12.70;52.00
58993;DHT22;44782;0.000;0.000;2023-02-10T13:08:55;12.70;51.70
58993;DHT22;44782;0.000;0.000;2023-02-10T13:12:03;12.70;51.90
58993;DHT22;44782;0.000;0.000;2023-02-10T13:13:53;12.80;51.90
58993;DHT22;44782;0.000;0.000;2023-02-10T13:16:17;12.80;52.10
58993;DHT22;44782;0.000;0.000;2023-02-10T13:18:43;12.80;51.90
58993;DHT22;44782;0.000;0.000;2023-02-10T13:26:14;12.90;51.90
58993;DHT22;44782;0.000;0.000;2023-02-10T13:36:00;12.90;51.70
58993;DHT22;44782;0.000;0.000;2023-02-10T13:38:20;12.90;51.90
58993;DHT22;44782;0.000;0.000;2023-02-10T13:43:04;12.90;51.70
58993;DHT22;44782;0.000;0.000;2023-02-10T13:45:26;12.90;51.80
58993;DHT22;44782;0.000;0.000;2023-02-10T13:47:46;12.90;52.50
58993;DHT22;44782;0.000;0.000;2023-02-10T13:50:06;12.90;51.80
58993;DHT22;44782;0.000;0.000;2023-02-10T13:52:26;12.90;51.90
58993;DHT22;44782;0.000;0.000;2023-02-10T13:54:54;12.90;51.90
58993;DHT22;44782;0.000;0.000;2023-02-10T13:57:27;12.90;51.80
58993;DHT22;44782;0.000;0.000;2023-02-10T13:59:43;12.90;51.70
58993;DHT22;44782;0.000;0.000;2023-02-10T14:02:20;12.90;51.90
58993;DHT22;44782;0.000;0.000;2023-02-10T14:04:43;13.00;51.80
58993;DHT22;44782;0.000;0.000;2023-02-10T14:07:00;12.90;51.90
58993;DHT22;44782;0.000;0.000;2023-02-10T14:11:45;12.90;51.80
58993;DHT22;44782;0.000;0.000;2023-02-10T14:14:15;12.90;51.90
58993;DHT22;44782;0.000;0.000;2023-02-10T14:16:38;12.90;51.90
58993;DHT22;44782;0.000;0.000;2023-02-10T14:19:22;12.90;51.90
58993;DHT22;44782;0.000;0.000;2023-02-10T14:21:42;12.90;51.70
58993;DHT22;44782;0.000;0.000;2023-02-10T14:23:58;12.90;52.00
58993;DHT22;44782;0.000;0.000;2023-02-10T14:26:23;12.90;52.00
58993;DHT22;44782;0.000;0.000;2023-02-10T14:28:52;12.90;51.90
58993;DHT22;44782;0.000;0.000;2023-02-10T14:31:17;12.90;51.90
58993;DHT22;44782;0.000;0.000;2023-02-10T14:33:34;12.90;52.00
58993;DHT22;44782;0.000;0.000;2023-02-10T14:35:52;12.80;52.00
58993;DHT22;44782;0.000;0.000;2023-02-10T14:38:20;12.80;52.00
58993;DHT22;44782;0.000;0.000;2023-02-10T14:40:37;12.90;51.90
58993;DHT22;44782;0.000;0.000;2023-02-10T14:42:53;12.80;52.00
58993;DHT22;44782;0.000;0.000;2023-02-10T14:45:22;12.80;52.00
58993;DHT22;44782;0.000;0.000;2023-02-10T14:47:38;12.80;51.90
58993;DHT22;44782;0.000;0.000;2023-02-10T14:49:58;12.80;52.00
58993;DHT22;44782;0.000;0.000;2023-02-10T14:52:26;12.80;52.80
58993;DHT22;44782;0.000;0.000;2023-02-10T14:54:42;12.80;52.10
58993;DHT22;44782;0.000;0.000;2023-02-10T14:57:00;12.70;52.10
58993;DHT22;44782;0.000;0.000;2023-02-10T14:59:21;12.70;52.10
58993;DHT22;44782;0.000;0.000;2023-02-10T15:01:37;12.70;52.10
58993;DHT22;44782;0.000;0.000;2023-02-10T15:03:54;12.80;52.20
58993;DHT22;44782;0.000;0.000;2023-02-10T15:06:23;12.80;52.20
58993;DHT22;44782;0.000;0.000;2023-02-10T15:08:44;12.80;52.10
58993;DHT22;44782;0.000;0.000;2023-02-10T15:11:05;12.70;52.10
58993;DHT22;44782;0.000;0.000;2023-02-10T15:13:31;12.70;52.10
58993;DHT22;44782;0.000;0.000;2023-02-10T15:15:49;12.80;52.10
58993;DHT22;44782;0.000;0.000;2023-02-10T15:18:18;12.80;52.20
58993;DHT22;44782;0.000;0.000;2023-02-10T15:20:34;12.80;52.00
58993;DHT22;44782;0.000;0.000;2023-02-10T15:27:48;12.90;51.90
58993;DHT22;44782;0.000;0.000;2023-02-10T15:30:08;12.90;52.10
58993;DHT22;44782;0.000;0.000;2023-02-10T15:32:24;12.90;52.00
58993;DHT22;44782;0.000;0.000;2023-02-10T15:34:39;12.90;52.00
58993;DHT22;44782;0.000;0.000;2023-02-10T15:39:23;13.00;52.00
58993;DHT22;44782;0.000;0.000;2023-02-10T15:41:45;13.00;51.90
58993;DHT22;44782;0.000;0.000;2023-02-10T15:46:33;13.10;51.80
58993;DHT22;44782;0.000;0.000;2023-02-10T15:48:49;13.10;51.90
58993;DHT22;44782;0.000;0.000;2023-02-10T15:51:05;13.10;51.90
58993;DHT22;44782;0.000;0.000;2023-02-10T15:53:21;13.10;51.80
58993;DHT22;44782;0.000;0.000;2023-02-10T15:55:40;13.10;51.70
58993;DHT22;44782;0.000;0.000;2023-02-10T15:57:56;13.20;51.80
58993;DHT22;44782;0.000;0.000;2023-02-10T16:00:19;13.20;51.80
58993;DHT22;44782;0.000;0.000;2023-02-10T16:02:35;13.20;51.70
58993;DHT22;44782;0.000;0.000;2023-02-10T16:04:51;13.20;51.70
58993;DHT22;44782;0.000;0.000;2023-02-10T16:07:06;13.20;51.80
58993;DHT22;44782;0.000;0.000;2023-02-10T16:09:25;13.20;51.70
58993;DHT22;44782;0.000;0.000;2023-02-10T16:11:41;13.20;51.70
58993;DHT22;44782;0.000;0.000;2023-02-10T16:13:56;13.20;51.70
58993;DHT22;44782;0.000;0.000;2023-02-10T16:16:16;13.30;51.70
58993;DHT22;44782;0.000;0.000;2023-02-10T16:18:32;13.30;51.70
58993;DHT22;44782;0.000;0.000;2023-02-10T16:20:47;13.30;51.80
58993;DHT22;44782;0.000;0.000;2023-02-10T16:23:08;13.30;51.70
58993;DHT22;44782;0.000;0.000;2023-02-10T16:25:26;13.30;51.70
58993;DHT22;44782;0.000;0.000;2023-02-10T16:27:42;13.30;51.70
58993;DHT22;44782;0.000;0.000;2023-02-10T16:29:58;13.30;51.70
58993;DHT22;44782;0.000;0.000;2023-02-10T16:32:14;13.30;51.70
58993;DHT22;44782;0.000;0.000;2023-02-10T16:34:30;13.30;51.80
58993;DHT22;44782;0.000;0.000;2023-02-10T16:36:46;13.30;51.70
58993;DHT22;44782;0.000;0.000;2023-02-10T16:39:02;13.30;51.70
58993;DHT22;44782;0.000;0.000;2023-02-10T16:41:17;13.30;51.70
58993;DHT22;44782;0.000;0.000;2023-02-10T16:43:34;13.30;51.70
58993;DHT22;44782;0.000;0.000;2023-02-10T16:45:50;13.30;51.70
58993;DHT22;44782;0.000;0.000;2023-02-10T16:48:06;13.30;51.70
58993;DHT22;44782;0.000;0.000;2023-02-10T16:50:37;13.30;51.80